Time;durP1;ratioP1;P1;durP2;ratioP2;P2;SDS_P1;SDS_P2;PMS_P1;PMS_P2;Temp;Humidity;BMP_temperature;BMP_pressure;BME280_temperature;BME280_humidity;BME280_pressure;Samples;Min_cycle;Max_cycle;Signal;HPM_P1;HPM_P2
2021/03/17 00:02:31;;;;;;;13.00;9.65;;;4.40;82.00;;;3.38;68.56;94888.03;5051892;28;20261;-79
2021/03/17 00:05:37;;;;;;;14.05;9.52;;;4.30;81.90;;;3.39;68.12;94884.47;5051601;28;20673;-79
2021/03/17 00:08:23;;;;;;;13.05;9.20;;;4.30;81.90;;;3.40;67.94;94883.50;5038240;28;20284;-80
2021/03/17 00:11:08;;;;;;;14.52;9.80;;;4.30;81.90;;;3.43;68.50;94898.75;5046281;28;20325;-79
2021/03/17 00:13:53;;;;;;;13.43;9.50;;;4.30;82.00;;;3.41;68.28;94888.53;5037635;28;20298;-79
2021/03/17 00:16:38;;;;;;;13.45;9.82;;;4.30;81.90;;;3.37;68.58;94884.63;5071216;28;20230;-80
2021/03/17 00:19:24;;;;;;;14.07;10.25;;;4.30;82.10;;;3.40;68.28;94892.09;5071013;28;20194;-79
2021/03/17 00:22:09;;;;;;;15.25;10.40;;;4.40;82.10;;;3.41;68.54;94885.94;5057063;28;20222;-79
2021/03/17 00:24:55;;;;;;;18.08;11.13;;;4.30;82.00;;;3.36;68.47;94880.41;5057802;28;20198;-80
2021/03/17 00:27:40;;;;;;;15.00;10.70;;;4.30;82.10;;;3.41;68.10;94877.38;5071478;28;20218;-80
2021/03/17 00:30:25;;;;;;;12.85;9.63;;;4.30;82.10;;;3.38;68.37;94878.47;5057317;28;20273;-80
2021/03/17 00:33:13;;;;;;;13.65;10.18;;;4.30;82.00;;;3.39;68.15;94881.88;5057765;28;20210;-79
2021/03/17 00:35:59;;;;;;;15.70;10.43;;;4.30;82.00;;;3.41;68.19;94887.75;5071518;28;20234;-79
2021/03/17 00:38:45;;;;;;;12.98;9.70;;;4.30;82.00;;;3.38;68.53;94888.81;5057467;28;20199;-79
2021/03/17 00:41:31;;;;;;;15.07;10.05;;;4.30;82.10;;;3.39;68.14;94882.69;5061349;28;20217;-80
2021/03/17 00:44:24;;;;;;;13.82;9.82;;;4.30;82.10;;;3.39;68.22;94884.47;5062555;28;20198;-80
2021/03/17 00:47:09;;;;;;;17.38;9.68;;;4.30;82.10;;;3.36;68.15;94878.59;5075303;28;20254;-80
2021/03/17 00:49:37;;;;;;;17.23;10.23;;;4.30;82.00;;;3.38;68.41;94878.47;5042048;28;20202;-80
2021/03/17 00:52:05;;;;;;;14.27;10.15;;;4.30;82.00;;;3.39;68.27;94881.88;5075023;28;20264;-80
2021/03/17 00:54:51;;;;;;;16.00;10.55;;;4.30;82.10;;;3.42;68.17;94881.56;5075383;28;20253;-79
2021/03/17 00:57:32;;;;;;;15.93;10.20;;;4.30;82.00;;;3.42;68.44;94879.81;5046300;28;20262;-79
2021/03/17 00:59:59;;;;;;;12.93;10.68;;;4.30;82.00;;;3.42;67.92;94885.00;5041640;28;20595;-80
2021/03/17 01:02:26;;;;;;;18.15;11.10;;;4.30;82.00;;;3.40;68.00;94880.91;5058269;28;20284;-80
2021/03/17 01:04:53;;;;;;;14.15;9.50;;;4.30;82.10;;;3.41;68.12;94879.97;5058145;28;20227;-79
2021/03/17 01:07:20;;;;;;;15.23;10.50;;;4.30;82.00;;;3.40;68.23;94878.31;5058017;28;20683;-80
2021/03/17 01:09:47;;;;;;;15.02;10.52;;;4.30;82.00;;;3.41;68.10;94872.19;5058023;28;20653;-79
2021/03/17 01:12:14;;;;;;;11.57;8.85;;;4.30;82.00;;;3.35;68.10;94869.19;5058118;28;20229;-80
2021/03/17 01:14:44;;;;;;;13.13;9.25;;;4.30;82.00;;;3.41;67.65;94867.00;5074663;28;20199;-80
2021/03/17 01:17:11;;;;;;;12.05;9.25;;;4.30;82.00;;;3.41;68.17;94867.81;5074549;28;20246;-80
2021/03/17 01:19:38;;;;;;;13.85;9.98;;;4.30;82.00;;;3.35;68.10;94858.84;5074476;28;20192;-80
2021/03/17 01:22:06;;;;;;;11.77;10.02;;;4.30;82.10;;;3.33;68.18;94863.38;5040912;28;20250;-80
2021/03/17 01:24:33;;;;;;;11.90;8.85;;;4.30;82.00;;;3.34;68.25;94864.16;5058131;28;20204;-80
2021/03/17 01:26:59;;;;;;;13.15;9.95;;;4.30;82.00;;;3.36;68.10;94875.22;5057530;28;20227;-79
2021/03/17 01:29:26;;;;;;;14.20;10.10;;;4.30;82.00;;;3.33;68.25;94868.56;5053925;28;20196;-80
2021/03/17 01:31:53;;;;;;;12.13;9.57;;;4.30;82.00;;;3.32;67.97;94863.50;5055532;28;20243;-80
2021/03/17 01:34:21;;;;;;;14.57;9.27;;;4.30;82.00;;;3.36;68.27;94873.44;5037577;28;20551;-80
2021/03/17 01:36:48;;;;;;;13.85;8.80;;;4.30;82.00;;;3.34;68.29;94859.81;5037631;28;20698;-79
2021/03/17 01:39:14;;;;;;;9.88;8.68;;;4.20;82.00;;;3.35;68.30;94856.25;5053734;28;20231;-79
2021/03/17 01:41:41;;;;;;;11.25;8.95;;;4.30;82.00;;;3.33;68.00;94854.75;5037796;28;20247;-80
2021/03/17 01:44:08;;;;;;;12.45;8.25;;;4.40;82.00;;;3.31;68.00;94844.53;5037570;28;20620;-80
2021/03/17 01:46:35;;;;;;;11.13;8.48;;;4.20;81.80;;;3.33;67.87;94847.81;5042141;28;20223;-80
2021/03/17 01:49:02;;;;;;;14.65;8.77;;;4.30;81.80;;;3.30;67.65;94845.50;5073544;28;20192;-80
2021/03/17 01:51:28;;;;;;;12.93;8.55;;;4.20;81.70;;;3.29;67.99;94848.25;5057246;28;20214;-79
2021/03/17 01:53:56;;;;;;;11.40;8.60;;;4.20;81.70;;;3.23;67.96;94841.88;5040599;28;20669;-80
2021/03/17 01:56:22;;;;;;;11.07;8.75;;;4.20;81.80;;;3.18;68.62;94842.31;5069768;28;20211;-80
2021/03/17 01:58:49;;;;;;;11.15;8.50;;;4.20;81.80;;;3.19;68.08;94848.31;5037184;28;20196;-80
2021/03/17 02:01:16;;;;;;;11.65;8.68;;;4.20;81.90;;;3.17;68.19;94834.69;5020510;28;20330;-80
2021/03/17 02:03:44;;;;;;;9.95;7.95;;;4.10;81.80;;;3.12;68.16;94826.56;5053768;28;20192;-79
2021/03/17 02:06:11;;;;;;;11.30;7.90;;;4.10;81.70;;;3.12;67.88;94829.94;5037065;28;20240;-80
2021/03/17 02:08:41;;;;;;;8.60;7.40;;;4.10;81.70;;;3.16;67.90;94828.72;5036916;28;20212;-80
2021/03/17 02:11:11;;;;;;;13.15;7.53;;;4.10;81.80;;;3.17;67.96;94834.69;5037098;28;20728;-80
2021/03/17 02:13:56;;;;;;;9.57;7.47;;;4.10;81.80;;;3.17;68.19;94835.53;5046088;28;20206;-80
2021/03/17 02:16:34;;;;;;;13.30;8.68;;;4.10;81.90;;;3.15;68.28;94839.19;5036716;28;20216;-79
2021/03/17 02:19:45;;;;;;;12.65;8.88;;;4.10;82.00;;;3.12;67.91;94823.97;5054651;28;20184;-80
2021/03/17 02:22:42;;;;;;;11.98;8.60;;;4.10;81.90;;;3.09;68.14;94816.47;5053365;28;20314;-80
2021/03/17 02:25:42;;;;;;;11.55;9.02;;;4.10;81.90;;;3.10;68.24;94818.94;5053281;28;20193;-80
2021/03/17 02:28:39;;;;;;;13.25;9.57;;;4.10;81.90;;;3.11;68.09;94819.75;5036939;28;20200;-80
2021/03/17 02:31:12;;;;;;;16.88;9.63;;;4.10;81.90;;;3.15;68.46;94834.00;5036261;28;20222;-80
2021/03/17 02:33:57;;;;;;;13.10;9.70;;;4.10;82.00;;;3.15;68.09;94826.25;5020245;28;20200;-80
2021/03/17 02:36:40;;;;;;;13.45;9.60;;;4.00;82.00;;;3.14;68.01;94820.25;5020014;28;20208;-79
2021/03/17 02:39:46;;;;;;;15.57;9.82;;;4.10;81.90;;;3.10;68.50;94815.50;5020018;28;20195;-79
2021/03/17 02:42:52;;;;;;;15.00;10.13;;;4.10;82.00;;;3.09;68.39;94819.88;5036735;28;20203;-80
2021/03/17 02:45:29;;;;;;;13.25;9.55;;;4.10;82.00;;;3.12;68.42;94822.16;5036397;28;20205;-80
2021/03/17 02:48:06;;;;;;;13.65;9.90;;;4.10;82.10;;;3.13;68.30;94826.41;5052946;28;20230;-79
2021/03/17 02:50:35;;;;;;;14.35;10.38;;;4.10;82.00;;;3.09;68.42;94816.47;5052798;28;20234;-80
2021/03/17 02:53:05;;;;;;;16.17;10.98;;;4.10;82.10;;;3.10;68.21;94815.50;5066778;28;20197;-80
2021/03/17 02:55:42;;;;;;;14.05;9.35;;;4.10;82.20;;;3.15;68.01;94824.47;5059788;28;20203;-80
2021/03/17 02:58:11;;;;;;;15.05;10.38;;;4.20;82.20;;;3.18;68.29;94815.59;5056247;28;20319;-80
2021/03/17 03:00:38;;;;;;;16.15;9.98;;;4.10;82.20;;;3.21;68.16;94825.69;5054757;28;20245;-80
2021/03/17 03:03:07;;;;;;;16.48;10.70;;;4.10;82.20;;;3.19;68.48;94818.03;5072077;28;20219;-79
2021/03/17 03:05:34;;;;;;;14.18;9.98;;;4.10;82.20;;;3.18;68.45;94813.00;5055191;28;20198;-79
2021/03/17 03:08:01;;;;;;;16.25;10.82;;;4.10;82.20;;;3.18;68.45;94811.22;5056054;28;20195;-79
2021/03/17 03:10:30;;;;;;;15.20;10.95;;;4.20;82.30;;;3.19;68.60;94825.00;5055791;28;20545;-80
2021/03/17 03:12:59;;;;;;;13.63;10.10;;;4.20;82.30;;;3.17;68.50;94811.38;5068571;28;20207;-80
2021/03/17 03:15:28;;;;;;;16.52;10.27;;;4.10;82.20;;;3.20;68.40;94811.88;5019431;28;20195;-80
2021/03/17 03:17:58;;;;;;;14.48;11.27;;;4.10;82.30;;;3.18;68.89;94813.81;5035916;28;20236;-80
2021/03/17 03:20:30;;;;;;;13.38;10.18;;;4.10;82.30;;;3.15;68.57;94815.88;5035538;28;20200;-80
2021/03/17 03:22:57;;;;;;;14.30;10.45;;;4.10;82.30;;;3.17;68.38;94817.38;5045569;28;20654;-79
2021/03/17 03:25:25;;;;;;;12.43;9.57;;;4.10;82.30;;;3.19;68.42;94818.03;5052094;28;20219;-80
2021/03/17 03:27:54;;;;;;;12.70;9.43;;;4.10;82.20;;;3.22;68.07;94821.28;5019203;28;20235;-80
2021/03/17 03:30:26;;;;;;;13.63;9.90;;;4.20;82.20;;;3.20;68.54;94827.44;5021636;28;20215;-80
2021/03/17 03:32:55;;;;;;;12.30;9.95;;;4.10;82.20;;;3.20;68.43;94837.81;5055464;28;20321;-80
2021/03/17 03:35:24;;;;;;;12.90;9.60;;;4.10;82.20;;;3.18;68.32;94825.97;5071154;28;20233;-80
2021/03/17 03:37:51;;;;;;;13.43;9.60;;;4.10;82.20;;;3.16;68.52;94839.06;5071695;28;20227;-79
2021/03/17 03:40:20;;;;;;;14.35;10.38;;;4.10;82.30;;;3.19;68.57;94832.78;5055240;28;20191;-80
2021/03/17 03:42:48;;;;;;;11.85;9.10;;;4.10;82.30;;;3.20;68.33;94837.00;5055136;28;20592;-80
2021/03/17 03:45:18;;;;;;;11.98;9.15;;;4.10;82.50;;;3.17;68.36;94832.94;5088604;28;20453;-79
2021/03/17 03:47:46;;;;;;;12.38;9.05;;;4.10;82.20;;;3.19;68.15;94825.00;5088581;28;20238;-80
2021/03/17 03:50:20;;;;;;;11.50;8.90;;;4.10;82.20;;;3.18;68.49;94826.75;5088421;28;20195;-79
2021/03/17 03:53:13;;;;;;;12.93;9.05;;;4.10;82.30;;;3.15;68.28;94827.06;5055344;28;20692;-79
2021/03/17 03:55:55;;;;;;;10.63;8.65;;;4.10;82.10;;;3.16;68.11;94830.47;5062123;28;20200;-79
2021/03/17 03:58:34;;;;;;;12.05;8.73;;;4.10;82.10;;;3.15;68.25;94837.44;5046758;28;20639;-79
2021/03/17 04:01:18;;;;;;;12.60;8.73;;;4.10;82.20;;;3.17;68.25;94827.75;5053896;28;20234;-79
2021/03/17 04:03:53;;;;;;;13.02;8.65;;;4.10;82.10;;;3.19;67.95;94830.19;5058336;28;20199;-80
2021/03/17 04:06:20;;;;;;;13.00;9.40;;;4.10;82.10;;;3.20;68.32;94822.25;5059851;28;20613;-78
2021/03/17 04:08:54;;;;;;;12.75;9.60;;;4.10;82.00;;;3.16;68.00;94814.91;5059261;28;20207;-79
2021/03/17 04:11:22;;;;;;;13.77;10.18;;;4.10;82.00;;;3.17;68.14;94824.31;5063412;28;20257;-79
2021/03/17 04:13:49;;;;;;;13.38;9.77;;;4.10;82.00;;;3.16;67.91;94817.50;5050401;28;20192;-78
2021/03/17 04:16:18;;;;;;;15.48;9.52;;;4.10;82.70;;;3.15;67.69;94810.69;5058733;28;20705;-79
2021/03/17 04:18:48;;;;;;;15.98;10.73;;;4.10;81.90;;;3.16;68.19;94817.50;5041168;28;20261;-80
2021/03/17 04:21:23;;;;;;;14.75;9.73;;;4.10;81.90;;;3.12;68.20;94811.00;5047972;28;20638;-80
2021/03/17 04:23:51;;;;;;;14.73;10.13;;;4.10;82.10;;;3.15;67.96;94818.47;5060884;28;20187;-80
2021/03/17 04:26:20;;;;;;;17.00;10.65;;;4.10;82.10;;;3.15;68.53;94828.84;5039294;28;20322;-80
2021/03/17 04:28:48;;;;;;;14.48;10.27;;;4.10;82.20;;;3.18;68.07;94823.38;5029492;28;20217;-79
2021/03/17 04:31:16;;;;;;;16.98;11.50;;;4.10;82.20;;;3.12;68.24;94821.38;5058234;28;20215;-80
2021/03/17 04:33:44;;;;;;;16.05;11.35;;;4.10;82.20;;;3.19;67.98;94825.00;5056045;28;20200;-79
2021/03/17 04:36:13;;;;;;;13.15;9.65;;;4.10;82.20;;;3.18;68.08;94826.75;5034493;28;20262;-79
2021/03/17 04:38:42;;;;;;;14.82;10.13;;;4.10;82.20;;;3.23;67.96;94822.94;5048621;28;20666;-79
2021/03/17 04:41:11;;;;;;;16.02;10.90;;;4.10;82.10;;;3.24;67.91;94825.38;5067584;28;20211;-80
2021/03/17 04:43:40;;;;;;;16.92;11.07;;;4.10;82.10;;;3.26;67.85;94820.03;5051733;28;20290;-78
2021/03/17 04:46:07;;;;;;;14.90;11.68;;;4.10;82.10;;;3.28;68.14;94818.91;5051834;28;20227;-78
2021/03/17 04:48:41;;;;;;;16.45;12.10;;;4.10;82.20;;;3.28;68.12;94821.50;5042711;28;20289;-79
2021/03/17 04:51:10;;;;;;;18.02;11.60;;;4.20;82.20;;;3.29;68.04;94830.09;5045440;28;20457;-80
2021/03/17 04:53:37;;;;;;;17.98;12.48;;;4.10;82.20;;;3.24;68.03;94817.59;5027023;28;20203;-80
2021/03/17 04:56:08;;;;;;;20.08;13.63;;;4.20;82.20;;;3.24;68.19;94827.16;5062725;28;20227;-79
2021/03/17 04:58:39;;;;;;;20.05;13.40;;;4.20;82.30;;;3.28;68.25;94824.09;5035914;28;20203;-79
2021/03/17 05:01:09;;;;;;;19.30;14.10;;;4.20;82.30;;;3.24;68.24;94830.53;5036448;28;20584;-80
2021/03/17 05:03:39;;;;;;;18.33;13.85;;;4.20;83.10;;;3.25;68.24;94836.53;5033447;28;20192;-80
2021/03/17 05:06:06;;;;;;;19.67;13.98;;;4.20;82.30;;;3.25;68.84;94832.19;5035673;28;20281;-79
2021/03/17 05:08:37;;;;;;;21.30;14.75;;;4.20;82.30;;;3.24;68.45;94833.13;5060510;28;20202;-79
2021/03/17 05:11:05;;;;;;;19.25;13.52;;;4.20;82.40;;;3.21;68.53;94823.09;5053058;28;20219;-79
2021/03/17 05:13:35;;;;;;;16.73;12.52;;;4.20;82.40;;;3.20;68.10;94824.84;5054387;28;20671;-79
2021/03/17 05:16:05;;;;;;;22.30;14.88;;;4.20;82.30;;;3.26;68.54;94825.22;5052502;28;20273;-80
2021/03/17 05:18:32;;;;;;;17.70;13.65;;;4.20;82.40;;;3.25;68.16;94839.97;5033840;28;20246;-79
2021/03/17 05:21:02;;;;;;;19.70;14.70;;;4.20;82.40;;;3.25;68.54;94829.59;5050893;28;20339;-78
2021/03/17 05:23:30;;;;;;;20.40;14.50;;;4.20;82.30;;;3.23;68.16;94834.09;5056930;28;20196;-79
2021/03/17 05:25:58;;;;;;;23.08;14.00;;;4.20;82.40;;;3.28;68.08;94841.44;5035228;28;20262;-79
2021/03/17 05:28:26;;;;;;;19.73;14.10;;;4.20;82.40;;;3.28;68.75;94839.66;5038528;28;20262;-79
2021/03/17 05:30:54;;;;;;;22.67;15.18;;;4.20;82.40;;;3.30;68.37;94840.31;5053674;28;20322;-80
2021/03/17 05:33:26;;;;;;;20.33;13.95;;;4.20;83.10;;;3.33;68.18;94841.78;5057055;28;20261;-80
2021/03/17 05:35:54;;;;;;;21.30;15.40;;;4.20;82.40;;;3.32;68.20;94832.38;5057138;28;20215;-80
2021/03/17 05:38:22;;;;;;;23.42;14.48;;;4.20;82.40;;;3.35;68.38;94837.28;5041103;28;20195;-79
2021/03/17 05:40:49;;;;;;;22.23;14.75;;;4.20;82.40;;;3.33;68.19;94834.03;5074049;28;20610;-80
2021/03/17 05:43:17;;;;;;;20.92;14.15;;;4.20;82.30;;;3.36;68.10;94834.53;5041172;28;20219;-79
2021/03/17 05:45:46;;;;;;;20.45;15.35;;;4.30;82.40;;;3.36;68.39;94837.13;5061013;28;20290;-80
2021/03/17 05:48:16;;;;;;;20.60;14.45;;;4.20;82.30;;;3.38;68.02;94838.75;5040927;28;20249;-81
2021/03/17 05:50:43;;;;;;;20.15;14.38;;;4.20;82.40;;;3.37;68.45;94830.19;5053562;28;20188;-80
2021/03/17 05:53:11;;;;;;;20.77;14.43;;;4.30;82.40;;;3.38;68.21;94842.16;5038017;28;20654;-79
2021/03/17 05:55:38;;;;;;;22.23;14.48;;;4.30;82.40;;;3.42;67.71;94838.31;5021325;28;20598;-80
2021/03/17 05:58:05;;;;;;;22.08;14.90;;;4.30;82.30;;;3.43;68.29;94842.56;5055204;28;20199;-79
2021/03/17 06:00:32;;;;;;;19.90;14.15;;;4.30;82.30;;;3.37;68.38;94830.19;5066769;28;20249;-80
2021/03/17 06:03:03;;;;;;;18.92;13.70;;;4.30;82.30;;;3.48;68.05;94845.50;5073458;28;20195;-79
2021/03/17 06:05:31;;;;;;;22.50;14.70;;;4.30;82.30;;;3.52;67.82;94846.03;5050866;28;20192;-79
2021/03/17 06:08:12;;;;;;;19.55;13.88;;;4.30;82.30;;;3.51;68.04;94849.56;5058798;28;20278;-79
2021/03/17 06:10:40;;;;;;;21.48;14.40;;;4.30;82.30;;;3.53;67.59;94845.84;5035651;28;20759;-79
2021/03/17 06:13:11;;;;;;;20.63;14.25;;;4.30;82.20;;;3.53;67.68;94845.84;5055182;28;20199;-79
2021/03/17 06:15:41;;;;;;;23.98;15.02;;;4.40;82.20;;;3.56;68.04;94849.13;5035900;28;20220;-78
2021/03/17 06:18:39;;;;;;;22.67;14.65;;;4.40;82.30;;;3.53;67.96;94852.84;5063211;28;20195;-79
2021/03/17 06:21:07;;;;;;;20.58;14.45;;;4.40;82.30;;;3.55;68.25;94852.69;5037069;28;20306;-79
2021/03/17 06:23:34;;;;;;;19.42;13.60;;;4.40;82.40;;;3.58;68.35;94853.19;5054519;28;20196;-78
2021/03/17 06:26:05;;;;;;;22.35;14.57;;;4.40;82.40;;;3.53;68.24;94855.44;5036405;28;20230;-79
2021/03/17 06:28:34;;;;;;;19.73;12.88;;;4.50;82.50;;;3.59;68.20;94848.81;5039304;28;20232;-80
2021/03/17 06:31:01;;;;;;;17.70;12.90;;;4.40;82.30;;;3.58;68.08;94858.38;5054726;28;20227;-79
2021/03/17 06:33:28;;;;;;;18.58;12.45;;;4.50;82.50;;;3.61;68.10;94860.66;5050349;28;20733;-79
2021/03/17 06:36:15;;;;;;;16.52;11.77;;;4.50;82.50;;;3.65;67.88;94871.56;5061016;28;20219;-79
2021/03/17 06:38:43;;;;;;;14.15;10.07;;;4.50;82.50;;;3.69;67.92;94865.91;5053548;28;20215;-79
2021/03/17 06:41:10;;;;;;;15.13;11.27;;;4.50;82.50;;;3.68;68.21;94855.72;5046572;28;20215;-78
2021/03/17 06:43:46;;;;;;;15.57;11.38;;;4.50;82.60;;;3.71;68.35;94862.38;5036040;28;20274;-79
2021/03/17 06:46:18;;;;;;;15.23;11.00;;;4.50;82.60;;;3.69;68.39;94870.31;5070991;28;20215;-79
2021/03/17 06:48:56;;;;;;;13.43;10.35;;;4.60;82.70;;;3.74;68.27;94875.06;5063842;28;20222;-78
2021/03/17 06:51:23;;;;;;;14.50;10.98;;;4.60;82.80;;;3.74;68.32;94868.06;5061231;28;20220;-78
2021/03/17 06:53:52;;;;;;;14.77;11.05;;;4.60;82.80;;;3.80;68.31;94871.84;5061790;28;20696;-78
2021/03/17 06:56:36;;;;;;;15.77;12.18;;;4.60;82.80;;;3.80;68.20;94874.44;5051212;28;20223;-79
2021/03/17 06:59:06;;;;;;;13.73;10.93;;;4.60;82.70;;;3.82;68.44;94873.31;5072576;28;20541;-79
2021/03/17 07:01:41;;;;;;;14.95;11.27;;;4.60;82.80;;;3.89;68.60;94883.91;5072729;28;20223;-78
2021/03/17 07:04:16;;;;;;;16.88;12.48;;;4.60;83.00;;;3.97;68.22;94883.97;5059499;28;20850;-79
2021/03/17 07:06:46;;;;;;;18.88;12.85;;;4.70;83.10;;;4.01;68.43;94882.69;5062877;28;20710;-78
2021/03/17 07:09:24;;;;;;;16.50;12.45;;;4.70;83.20;;;4.09;68.07;94881.94;5052420;28;20200;-79
2021/03/17 07:12:12;;;;;;;19.17;13.90;;;4.80;83.10;;;4.10;67.69;94888.78;5069536;28;20215;-80
2021/03/17 07:14:42;;;;;;;18.17;12.73;;;4.80;82.80;;;4.12;67.97;94883.41;5052080;28;20195;-79
2021/03/17 07:17:31;;;;;;;16.83;12.32;;;4.90;82.90;;;4.18;68.14;94889.78;5063629;28;20222;-78
2021/03/17 07:19:58;;;;;;;19.35;13.45;;;4.90;82.70;;;4.16;67.85;94885.56;5071253;28;20188;-78
2021/03/17 07:22:26;;;;;;;17.67;12.65;;;4.90;82.80;;;4.22;67.87;94883.31;5071613;28;20276;-78
2021/03/17 07:25:05;;;;;;;18.17;13.77;;;5.00;82.80;;;4.25;67.56;94890.81;5045392;28;20683;-79
2021/03/17 07:27:33;;;;;;;18.15;12.60;;;5.00;82.50;;;4.27;67.71;94884.50;5050121;28;20707;-80
2021/03/17 07:30:01;;;;;;;17.92;13.25;;;5.00;82.70;;;4.35;67.78;94893.31;5048891;28;20210;-78
2021/03/17 07:32:58;;;;;;;16.85;12.50;;;5.00;82.80;;;4.40;67.39;94894.44;5068721;28;20223;-78
2021/03/17 07:35:30;;;;;;;15.98;12.10;;;5.10;82.50;;;4.42;67.23;94894.28;5038388;28;20202;-78
2021/03/17 07:38:15;;;;;;;15.60;11.63;;;5.20;82.70;;;4.46;67.70;94893.03;5070658;28;20192;-79
2021/03/17 07:40:46;;;;;;;19.10;13.55;;;5.10;82.50;;;4.47;66.74;94898.06;5066113;28;20242;-79
2021/03/17 07:43:16;;;;;;;19.60;13.93;;;5.20;82.30;;;4.41;66.23;94892.69;5054026;28;20234;-79
2021/03/17 07:45:44;;;;;;;15.77;12.25;;;5.20;81.90;;;4.35;66.05;94891.50;5047845;28;20210;-79
2021/03/17 07:48:13;;;;;;;16.30;12.50;;;5.20;81.70;;;4.30;65.88;94888.56;5052817;28;20289;-79
2021/03/17 07:50:43;;;;;;;16.85;12.00;;;5.20;81.40;;;4.23;66.43;94896.13;5061202;28;20184;-79
2021/03/17 07:53:25;;;;;;;15.85;11.85;;;5.10;81.30;;;4.16;66.10;94893.34;5044453;28;20218;-79
2021/03/17 07:55:57;;;;;;;16.38;12.68;;;5.10;81.10;;;4.13;66.29;94890.25;5069048;28;20272;-79
2021/03/17 07:58:25;;;;;;;16.08;12.57;;;5.10;81.10;;;4.14;66.87;94891.88;5046164;28;20219;-79
2021/03/17 08:00:53;;;;;;;18.60;13.02;;;5.00;81.50;;;4.21;67.14;94890.31;5077516;28;20222;-79
2021/03/17 08:03:20;;;;;;;18.23;13.60;;;5.00;81.90;;;4.33;66.70;94894.25;5052984;28;20191;-79
2021/03/17 08:05:47;;;;;;;17.35;12.10;;;5.10;82.20;;;4.48;67.36;94894.50;5038225;28;20302;-79
2021/03/17 08:08:15;;;;;;;16.23;11.88;;;5.10;82.40;;;4.61;66.97;94912.28;5041900;28;20227;-80
2021/03/17 08:10:44;;;;;;;19.08;13.00;;;5.10;82.50;;;4.69;66.71;94903.69;5047369;28;20200;-79
2021/03/17 08:13:15;;;;;;;15.27;11.50;;;5.20;82.40;;;4.73;66.34;94906.81;5067677;28;20196;-80
2021/03/17 08:15:44;;;;;;;18.52;12.20;;;5.30;82.30;;;4.67;65.56;94908.22;5032195;28;20568;-80
2021/03/17 08:18:33;;;;;;;16.05;11.30;;;5.30;81.50;;;4.61;65.33;94908.84;5048939;28;20200;-80
2021/03/17 08:21:02;;;;;;;15.98;11.15;;;5.40;81.40;;;4.57;65.55;94912.72;5069553;28;20222;-79
2021/03/17 08:23:50;;;;;;;13.25;10.02;;;5.40;81.30;;;4.57;65.78;94910.94;5037524;28;20299;-80
2021/03/17 08:26:19;;;;;;;17.10;10.30;;;5.30;81.20;;;4.61;65.95;94912.28;5042070;28;20228;-80
2021/03/17 08:28:57;;;;;;;15.23;10.68;;;5.40;81.20;;;4.61;65.78;94909.69;5052165;28;20728;-81
2021/03/17 08:31:36;;;;;;;14.38;10.65;;;5.40;81.50;;;4.63;65.52;94918.09;5050810;28;20231;-80
2021/03/17 08:34:19;;;;;;;14.23;10.10;;;5.40;81.10;;;4.68;65.79;94920.25;5044556;28;20195;-80
2021/03/17 08:36:53;;;;;;;14.02;9.88;;;5.50;81.20;;;4.73;65.97;94920.59;5061653;28;20226;-80
2021/03/17 08:39:29;;;;;;;12.93;9.32;;;5.40;81.30;;;4.81;66.19;94914.63;5050459;28;20199;-81
2021/03/17 08:42:03;;;;;;;12.07;8.93;;;5.50;81.20;;;4.95;66.60;94921.81;5062380;28;20359;-80
2021/03/17 08:44:43;;;;;;;13.38;9.15;;;5.60;81.60;;;5.10;66.07;94916.84;5045894;28;20219;-81
2021/03/17 08:47:42;;;;;;;10.88;7.70;;;5.60;81.20;;;5.22;66.04;94913.97;5050586;28;20246;-81
2021/03/17 08:50:15;;;;;;;9.93;7.28;;;5.70;81.30;;;5.40;66.35;94919.84;5041387;28;20283;-81
2021/03/17 08:52:46;;;;;;;11.05;7.15;;;5.80;81.80;;;5.52;65.41;94912.56;5045727;28;20685;-81
2021/03/17 08:55:15;;;;;;;8.68;6.70;;;5.90;81.80;;;5.64;65.24;94913.06;5047781;28;20188;-82
2021/03/17 08:58:07;;;;;;;8.38;6.47;;;6.00;81.50;;;5.73;64.51;94924.28;5048418;28;20257;-81
2021/03/17 09:00:58;;;;;;;9.52;6.40;;;6.20;81.30;;;5.76;64.19;94913.53;5034322;28;20206;-81
2021/03/17 09:03:31;;;;;;;8.75;6.97;;;6.30;80.80;;;5.81;63.52;94913.06;5051461;28;20247;-81
2021/03/17 09:06:29;;;;;;;8.45;6.43;;;6.30;80.20;;;5.82;63.67;94910.28;5067440;28;20258;-80
2021/03/17 09:08:59;;;;;;;7.32;6.18;;;6.40;80.10;;;5.96;63.91;94910.63;5033982;28;20604;-80
2021/03/17 09:11:29;;;;;;;9.30;7.03;;;6.40;80.40;;;6.01;64.02;94909.19;5037569;28;20223;-81
2021/03/17 09:14:08;;;;;;;9.77;7.15;;;6.50;80.60;;;6.01;62.78;94904.00;5066396;28;20224;-81
2021/03/17 09:17:07;;;;;;;8.90;6.78;;;6.50;79.50;;;6.01;63.55;94901.38;5051314;28;20693;-81
2021/03/17 09:20:31;;;;;;;8.55;6.40;;;6.50;80.10;;;6.09;64.04;94901.38;5052471;28;20598;-82
2021/03/17 09:23:03;;;;;;;9.93;7.20;;;6.60;79.90;;;6.16;63.98;94914.53;5054343;28;20207;-81
2021/03/17 09:25:33;;;;;;;8.55;7.10;;;6.70;80.30;;;6.20;62.84;94899.41;5038187;28;20571;-82
2021/03/17 09:28:14;;;;;;;8.48;6.60;;;6.70;79.90;;;6.16;62.90;94901.53;5071152;28;20227;-81
2021/03/17 09:30:51;;;;;;;8.32;5.93;;;6.70;79.60;;;6.14;61.77;94915.69;5062275;28;20207;-81
2021/03/17 09:33:29;;;;;;;8.20;6.15;;;6.70;79.40;;;6.04;61.59;94908.06;5057730;28;20264;-81
2021/03/17 09:36:07;;;;;;;9.50;6.70;;;6.70;78.50;;;5.97;61.96;94902.66;5037708;28;20222;-82
2021/03/17 09:38:48;;;;;;;7.00;5.80;;;6.70;78.20;;;5.95;61.50;94898.59;5086218;28;20645;-82
2021/03/17 09:41:24;;;;;;;7.22;5.72;;;6.70;78.30;;;5.96;61.50;94900.22;5037367;28;20220;-81
2021/03/17 09:44:03;;;;;;;7.65;6.13;;;6.60;78.10;;;6.00;59.53;94899.75;5062167;28;20273;-81
2021/03/17 09:46:43;;;;;;;7.15;5.85;;;6.60;77.60;;;6.03;59.37;94885.59;5041729;28;20270;-81
2021/03/17 09:49:19;;;;;;;9.57;6.25;;;6.60;77.70;;;6.17;59.76;94895.34;5030067;28;20574;-80
2021/03/17 09:51:53;;;;;;;7.53;5.63;;;6.70;77.90;;;6.28;58.25;94890.78;5066476;28;20265;-80
2021/03/17 09:54:24;;;;;;;9.25;5.50;;;6.70;77.20;;;6.27;57.15;94899.56;5064308;28;20192;-81
2021/03/17 09:56:54;;;;;;;7.32;5.40;;;6.70;76.50;;;6.23;56.03;94902.50;5049913;28;20236;-81
2021/03/17 09:59:33;;;;;;;7.32;5.65;;;6.80;76.10;;;6.29;55.94;94908.84;5063207;28;20196;-81
2021/03/17 10:02:04;;;;;;;7.05;5.20;;;6.80;75.70;;;6.35;56.16;94891.75;5073857;28;20233;-82
2021/03/17 10:04:34;;;;;;;6.30;5.30;;;6.80;75.70;;;6.45;56.85;94897.59;5068808;28;20293;-81
2021/03/17 10:07:05;;;;;;;6.93;5.07;;;6.90;76.20;;;6.51;56.29;94901.31;5060470;28;20755;-80
2021/03/17 10:09:36;;;;;;;8.07;5.35;;;6.90;75.90;;;6.56;53.13;94891.22;5061613;28;20305;-80
2021/03/17 10:12:05;;;;;;;6.80;5.00;;;7.00;74.00;;;6.70;55.53;94893.13;5033005;28;20246;-81
2021/03/17 10:14:33;;;;;;;6.60;4.95;;;7.00;75.30;;;6.85;53.20;94889.81;5056946;28;20290;-82
2021/03/17 10:17:03;;;;;;;7.07;5.13;;;7.10;74.70;;;6.93;53.24;94884.53;5065305;28;20585;-81
2021/03/17 10:19:31;;;;;;;8.98;5.78;;;7.20;74.70;;;7.08;53.50;94876.84;5039393;28;20212;-81
2021/03/17 10:21:58;;;;;;;7.78;5.45;;;7.40;74.50;;;7.27;51.90;94895.66;5058479;28;20238;-82
2021/03/17 10:24:33;;;;;;;7.18;5.60;;;7.40;74.00;;;7.35;52.84;94885.97;5068437;28;20192;-81
2021/03/17 10:27:01;;;;;;;8.77;5.97;;;7.60;74.20;;;7.37;52.16;94881.41;5068239;28;20709;-82
2021/03/17 10:29:28;;;;;;;7.00;5.97;;;7.70;74.20;;;7.31;50.34;94882.09;5048170;28;20250;-82
2021/03/17 10:31:56;;;;;;;7.78;5.85;;;7.80;72.50;;;7.16;51.54;94870.75;5057106;28;20235;-81
2021/03/17 10:34:27;;;;;;;8.48;6.20;;;7.80;72.50;;;7.17;51.05;94867.97;5057178;28;20287;-82
2021/03/17 10:36:56;;;;;;;8.68;5.68;;;7.70;72.30;;;7.08;50.94;94861.19;5071718;28;20211;-81
2021/03/17 10:39:33;;;;;;;6.82;5.35;;;7.70;72.90;;;7.02;50.89;94859.28;5036727;28;20237;-82
2021/03/17 10:42:02;;;;;;;6.28;5.07;;;7.70;71.80;;;7.03;47.94;94856.47;5053325;28;20216;-82
2021/03/17 10:44:31;;;;;;;8.90;6.00;;;7.70;70.20;;;7.02;49.77;94848.84;5063838;28;20200;-82
2021/03/17 10:47:11;;;;;;;9.13;5.50;;;7.70;71.00;;;7.12;50.98;94848.63;5055233;28;20623;-81
2021/03/17 10:49:45;;;;;;;7.55;5.68;;;7.60;71.70;;;7.16;49.88;94868.94;5035303;28;20666;-81
2021/03/17 10:52:13;;;;;;;7.97;5.78;;;7.70;71.10;;;7.14;49.74;94855.28;5053150;28;20242;-83